sensor_id;sensor_type;location;lat;lon;timestamp;temperature;humidity
18690;DHT22;9782;52.930;15.562;2023-03-01T06:02:19;-2.50;56.80
18690;DHT22;9782;52.930;15.562;2023-03-01T06:04:46;-2.50;32.20
18690;DHT22;9782;52.930;15.562;2023-03-01T06:07:13;-2.50;56.20
18690;DHT22;9782;52.930;15.562;2023-03-01T06:09:39;-2.50;99.90
18690;DHT22;9782;52.930;15.562;2023-03-01T06:12:06;-2.40;99.90
18690;DHT22;9782;52.930;15.562;2023-03-01T06:14:33;-2.30;99.90
18690;DHT22;9782;52.930;15.562;2023-03-01T06:17:00;-2.30;99.90
18690;DHT22;9782;52.930;15.562;2023-03-01T06:19:28;-2.20;99.90
18690;DHT22;9782;52.930;15.562;2023-03-01T06:21:55;-2.10;99.90
18690;DHT22;9782;52.930;15.562;2023-03-01T06:24:22;-2.00;99.90
18690;DHT22;9782;52.930;15.562;2023-03-01T06:26:48;-1.90;99.90
18690;DHT22;9782;52.930;15.562;2023-03-01T06:29:15;-1.80;99.90
18690;DHT22;9782;52.930;15.562;2023-03-01T06:31:42;-1.70;99.90
18690;DHT22;9782;52.930;15.562;2023-03-01T06:34:09;-1.60;99.90
18690;DHT22;9782;52.930;15.562;2023-03-01T06:36:40;-1.50;99.90
18690;DHT22;9782;52.930;15.562;2023-03-01T06:39:07;-1.40;99.90
18690;DHT22;9782;52.930;15.562;2023-03-01T06:41:34;-1.30;99.90
18690;DHT22;9782;52.930;15.562;2023-03-01T06:44:01;-1.20;99.90
18690;DHT22;9782;52.930;15.562;2023-03-01T06:46:28;-1.10;96.40
18690;DHT22;9782;52.930;15.562;2023-03-01T06:48:54;-1.10;99.50
18690;DHT22;9782;52.930;15.562;2023-03-01T06:51:21;-1.00;94.60
18690;DHT22;9782;52.930;15.562;2023-03-01T06:53:49;-0.80;81.20
18690;DHT22;9782;52.930;15.562;2023-03-01T06:56:16;-0.80;83.10
18690;DHT22;9782;52.930;15.562;2023-03-01T06:58:43;-0.70;74.40
18690;DHT22;9782;52.930;15.562;2023-03-01T07:01:09;-0.60;56.60
18690;DHT22;9782;52.930;15.562;2023-03-01T07:03:36;-0.50;34.80
18690;DHT22;9782;52.930;15.562;2023-03-01T07:06:03;-0.50;31.70
18690;DHT22;9782;52.930;15.562;2023-03-01T07:08:30;-0.40;30.50
18690;DHT22;9782;52.930;15.562;2023-03-01T07:10:59;-0.30;36.80
18690;DHT22;9782;52.930;15.562;2023-03-01T07:13:27;-0.20;38.50
18690;DHT22;9782;52.930;15.562;2023-03-01T07:15:54;0.00;23.70
18690;DHT22;9782;52.930;15.562;2023-03-01T07:18:21;0.10;6.90
18690;DHT22;9782;52.930;15.562;2023-03-01T07:20:47;0.20;1.00
18690;DHT22;9782;52.930;15.562;2023-03-01T07:23:14;0.20;1.00
18690;DHT22;9782;52.930;15.562;2023-03-01T07:25:41;0.40;1.00
18690;DHT22;9782;52.930;15.562;2023-03-01T07:28:09;0.40;1.00
18690;DHT22;9782;52.930;15.562;2023-03-01T07:30:36;0.60;1.00
18690;DHT22;9782;52.930;15.562;2023-03-01T07:33:03;0.70;1.00
18690;DHT22;9782;52.930;15.562;2023-03-01T07:35:29;0.80;1.00
18690;DHT22;9782;52.930;15.562;2023-03-01T07:37:58;0.90;1.00
18690;DHT22;9782;52.930;15.562;2023-03-01T07:40:25;1.10;1.00
18690;DHT22;9782;52.930;15.562;2023-03-01T07:42:55;1.20;1.00
18690;DHT22;9782;52.930;15.562;2023-03-01T07:45:24;1.30;1.00
18690;DHT22;9782;52.930;15.562;2023-03-01T07:47:51;1.50;1.00
18690;DHT22;9782;52.930;15.562;2023-03-01T07:50:18;1.60;1.00
18690;DHT22;9782;52.930;15.562;2023-03-01T07:52:45;1.70;1.00
18690;DHT22;9782;52.930;15.562;2023-03-01T07:55:13;1.70;1.00
18690;DHT22;9782;52.930;15.562;2023-03-01T07:57:39;1.80;1.00
18690;DHT22;9782;52.930;15.562;2023-03-01T08:00:08;1.90;1.00
18690;DHT22;9782;52.930;15.562;2023-03-01T08:02:37;2.00;1.00
18690;DHT22;9782;52.930;15.562;2023-03-01T08:05:04;2.00;1.00
18690;DHT22;9782;52.930;15.562;2023-03-01T08:07:32;2.00;1.00
18690;DHT22;9782;52.930;15.562;2023-03-01T08:09:59;2.00;1.00
18690;DHT22;9782;52.930;15.562;2023-03-01T08:12:26;2.10;1.00
18690;DHT22;9782;52.930;15.562;2023-03-01T08:14:53;2.10;1.00
18690;DHT22;9782;52.930;15.562;2023-03-01T08:17:20;2.20;1.00
18690;DHT22;9782;52.930;15.562;2023-03-01T08:19:48;2.20;1.00
18690;DHT22;9782;52.930;15.562;2023-03-01T08:22:15;2.30;1.00
18690;DHT22;9782;52.930;15.562;2023-03-01T08:24:42;2.40;1.00
18690;DHT22;9782;52.930;15.562;2023-03-01T08:27:08;2.50;1.00
18690;DHT22;9782;52.930;15.562;2023-03-01T08:29:37;2.60;1.00
18690;DHT22;9782;52.930;15.562;2023-03-01T08:32:04;2.70;1.00
18690;DHT22;9782;52.930;15.562;2023-03-01T08:34:31;2.80;1.00
18690;DHT22;9782;52.930;15.562;2023-03-01T08:37:02;2.80;1.00
18690;DHT22;9782;52.930;15.562;2023-03-01T08:39:29;2.90;1.00
18690;DHT22;9782;52.930;15.562;2023-03-01T08:41:56;3.00;1.00
18690;DHT22;9782;52.930;15.562;2023-03-01T08:44:23;3.00;1.00
18690;DHT22;9782;52.930;15.562;2023-03-01T08:46:50;3.20;1.00
18690;DHT22;9782;52.930;15.562;2023-03-01T08:49:19;3.30;1.00
18690;DHT22;9782;52.930;15.562;2023-03-01T08:51:47;3.40;1.00
18690;DHT22;9782;52.930;15.562;2023-03-01T08:54:18;3.50;1.00
18690;DHT22;9782;52.930;15.562;2023-03-01T08:56:45;3.60;1.00
18690;DHT22;9782;52.930;15.562;2023-03-01T08:59:12;3.80;1.00
18690;DHT22;9782;52.930;15.562;2023-03-01T09:01:40;3.80;1.00
18690;DHT22;9782;52.930;15.562;2023-03-01T09:04:08;3.90;1.00
18690;DHT22;9782;52.930;15.562;2023-03-01T09:06:35;4.00;99.90
18690;DHT22;9782;52.930;15.562;2023-03-01T09:09:03;4.00;99.90
18690;DHT22;9782;52.930;15.562;2023-03-01T09:11:32;4.10;99.90
18690;DHT22;9782;52.930;15.562;2023-03-01T09:13:59;4.10;99.90
18690;DHT22;9782;52.930;15.562;2023-03-01T09:16:25;4.20;99.90
18690;DHT22;9782;52.930;15.562;2023-03-01T09:18:53;4.20;99.90
18690;DHT22;9782;52.930;15.562;2023-03-01T09:21:22;4.40;99.90
18690;DHT22;9782;52.930;15.562;2023-03-01T09:23:50;4.50;99.90
18690;DHT22;9782;52.930;15.562;2023-03-01T09:26:18;4.40;99.90
18690;DHT22;9782;52.930;15.562;2023-03-01T09:28:48;4.40;99.90
18690;DHT22;9782;52.930;15.562;2023-03-01T09:31:17;4.50;99.90
18690;DHT22;9782;52.930;15.562;2023-03-01T09:33:47;4.50;99.90
18690;DHT22;9782;52.930;15.562;2023-03-01T09:36:15;4.60;99.90
18690;DHT22;9782;52.930;15.562;2023-03-01T09:38:42;4.70;99.90
18690;DHT22;9782;52.930;15.562;2023-03-01T09:41:11;4.70;99.90
18690;DHT22;9782;52.930;15.562;2023-03-01T09:43:49;4.80;99.90
18690;DHT22;9782;52.930;15.562;2023-03-01T09:46:21;4.90;99.90
18690;DHT22;9782;52.930;15.562;2023-03-01T09:48:50;4.90;99.90
18690;DHT22;9782;52.930;15.562;2023-03-01T09:51:24;4.90;99.90
18690;DHT22;9782;52.930;15.562;2023-03-01T09:53:52;5.00;99.90
18690;DHT22;9782;52.930;15.562;2023-03-01T09:56:27;5.00;99.90
18690;DHT22;9782;52.930;15.562;2023-03-01T09:59:05;5.00;99.90
18690;DHT22;9782;52.930;15.562;2023-03-01T10:01:43;5.00;99.90
18690;DHT22;9782;52.930;15.562;2023-03-01T10:04:28;5.00;99.90
18690;DHT22;9782;52.930;15.562;2023-03-01T10:07:07;5.10;99.90
18690;DHT22;9782;52.930;15.562;2023-03-01T10:09:40;5.20;99.90
18690;DHT22;9782;52.930;15.562;2023-03-01T10:12:09;5.30;99.90
18690;DHT22;9782;52.930;15.562;2023-03-01T10:14:43;5.40;99.90
18690;DHT22;9782;52.930;15.562;2023-03-01T10:17:23;5.50;99.90
18690;DHT22;9782;52.930;15.562;2023-03-01T10:19:50;5.70;99.90
18690;DHT22;9782;52.930;15.562;2023-03-01T10:22:20;5.80;99.90
18690;DHT22;9782;52.930;15.562;2023-03-01T10:24:48;5.90;99.90
18690;DHT22;9782;52.930;15.562;2023-03-01T10:27:20;5.90;99.90
18690;DHT22;9782;52.930;15.562;2023-03-01T10:29:56;6.00;99.90
18690;DHT22;9782;52.930;15.562;2023-03-01T10:32:25;5.90;99.90
18690;DHT22;9782;52.930;15.562;2023-03-01T10:34:52;5.90;99.90
18690;DHT22;9782;52.930;15.562;2023-03-01T10:37:21;5.90;99.90
18690;DHT22;9782;52.930;15.562;2023-03-01T10:39:58;5.90;99.90
18690;DHT22;9782;52.930;15.562;2023-03-01T10:42:30;5.90;99.90
18690;DHT22;9782;52.930;15.562;2023-03-01T10:45:15;5.90;99.90
18690;DHT22;9782;52.930;15.562;2023-03-01T10:47:42;5.90;99.90
18690;DHT22;9782;52.930;15.562;2023-03-01T10:50:19;6.00;99.90
18690;DHT22;9782;52.930;15.562;2023-03-01T10:52:56;6.10;99.90
18690;DHT22;9782;52.930;15.562;2023-03-01T10:55:27;6.20;99.90
18690;DHT22;9782;52.930;15.562;2023-03-01T10:58:08;6.20;99.90
18690;DHT22;9782;52.930;15.562;2023-03-01T11:00:46;6.20;99.90
18690;DHT22;9782;52.930;15.562;2023-03-01T11:03:14;6.30;99.90
18690;DHT22;9782;52.930;15.562;2023-03-01T11:06:03;6.30;99.90
18690;DHT22;9782;52.930;15.562;2023-03-01T11:08:35;6.30;99.90
18690;DHT22;9782;52.930;15.562;2023-03-01T11:11:14;6.40;99.90
18690;DHT22;9782;52.930;15.562;2023-03-01T11:13:50;6.40;99.90
18690;DHT22;9782;52.930;15.562;2023-03-01T11:16:26;6.50;99.90
18690;DHT22;9782;52.930;15.562;2023-03-01T11:18:58;6.50;99.90
18690;DHT22;9782;52.930;15.562;2023-03-01T11:21:27;6.60;99.90
18690;DHT22;9782;52.930;15.562;2023-03-01T11:23:54;6.60;99.90
18690;DHT22;9782;52.930;15.562;2023-03-01T11:26:21;6.70;99.90
18690;DHT22;9782;52.930;15.562;2023-03-01T11:28:51;6.70;99.90
18690;DHT22;9782;52.930;15.562;2023-03-01T11:31:19;6.70;99.90
18690;DHT22;9782;52.930;15.562;2023-03-01T11:33:54;6.80;99.90
18690;DHT22;9782;52.930;15.562;2023-03-01T11:36:30;6.80;99.90
18690;DHT22;9782;52.930;15.562;2023-03-01T11:39:03;6.90;99.90
18690;DHT22;9782;52.930;15.562;2023-03-01T11:41:32;6.90;99.90
18690;DHT22;9782;52.930;15.562;2023-03-01T11:44:03;6.90;99.90
18690;DHT22;9782;52.930;15.562;2023-03-01T11:47:07;6.90;99.90
18690;DHT22;9782;52.930;15.562;2023-03-01T11:49:54;6.90;99.90
18690;DHT22;9782;52.930;15.562;2023-03-01T11:52:31;7.00;99.90
18690;DHT22;9782;52.930;15.562;2023-03-01T11:55:17;7.00;99.90
18690;DHT22;9782;52.930;15.562;2023-03-01T11:58:06;7.00;99.90
18690;DHT22;9782;52.930;15.562;2023-03-01T12:00:45;7.00;99.90
18690;DHT22;9782;52.930;15.562;2023-03-01T12:03:27;7.00;99.90
18690;DHT22;9782;52.930;15.562;2023-03-01T12:06:34;7.00;99.90
18690;DHT22;9782;52.930;15.562;2023-03-01T12:09:16;7.10;99.90
18690;DHT22;9782;52.930;15.562;2023-03-01T12:12:01;7.00;99.90
18690;DHT22;9782;52.930;15.562;2023-03-01T12:14:41;7.00;99.90
18690;DHT22;9782;52.930;15.562;2023-03-01T12:17:29;7.10;99.90
18690;DHT22;9782;52.930;15.562;2023-03-01T12:20:14;7.10;99.90
18690;DHT22;9782;52.930;15.562;2023-03-01T12:22:57;7.20;99.90
18690;DHT22;9782;52.930;15.562;2023-03-01T12:25:30;7.10;99.90
18690;DHT22;9782;52.930;15.562;2023-03-01T12:28:15;7.10;99.90
18690;DHT22;9782;52.930;15.562;2023-03-01T12:31:01;7.00;99.90
18690;DHT22;9782;52.930;15.562;2023-03-01T12:33:39;7.00;99.90
18690;DHT22;9782;52.930;15.562;2023-03-01T12:36:29;7.10;99.90
18690;DHT22;9782;52.930;15.562;2023-03-01T12:39:13;7.10;99.90
18690;DHT22;9782;52.930;15.562;2023-03-01T12:41:47;7.00;99.90
18690;DHT22;9782;52.930;15.562;2023-03-01T12:44:35;7.10;99.90
18690;DHT22;9782;52.930;15.562;2023-03-01T12:47:17;7.10;99.90
18690;DHT22;9782;52.930;15.562;2023-03-01T12:49:49;7.20;99.90
18690;DHT22;9782;52.930;15.562;2023-03-01T12:52:23;7.20;99.90
18690;DHT22;9782;52.930;15.562;2023-03-01T12:54:57;7.20;99.90
18690;DHT22;9782;52.930;15.562;2023-03-01T12:57:28;7.20;99.90
18690;DHT22;9782;52.930;15.562;2023-03-01T13:00:10;7.30;99.90
18690;DHT22;9782;52.930;15.562;2023-03-01T13:02:50;7.30;99.90
18690;DHT22;9782;52.930;15.562;2023-03-01T13:05:26;7.40;99.90
18690;DHT22;9782;52.930;15.562;2023-03-01T13:08:01;7.40;99.90
18690;DHT22;9782;52.930;15.562;2023-03-01T13:10:35;7.50;99.90
18690;DHT22;9782;52.930;15.562;2023-03-01T13:13:14;7.50;99.90
18690;DHT22;9782;52.930;15.562;2023-03-01T13:15:44;7.50;99.90
18690;DHT22;9782;52.930;15.562;2023-03-01T13:18:31;7.60;99.90
18690;DHT22;9782;52.930;15.562;2023-03-01T13:21:00;7.60;99.90
18690;DHT22;9782;52.930;15.562;2023-03-01T13:23:30;7.60;99.90
18690;DHT22;9782;52.930;15.562;2023-03-01T13:26:04;7.60;99.90
18690;DHT22;9782;52.930;15.562;2023-03-01T13:28:52;7.60;99.90
18690;DHT22;9782;52.930;15.562;2023-03-01T13:34:43;7.60;99.90
18690;DHT22;9782;52.930;15.562;2023-03-01T13:37:17;7.60;99.90
18690;DHT22;9782;52.930;15.562;2023-03-01T13:39:45;7.70;99.90
18690;DHT22;9782;52.930;15.562;2023-03-01T13:42:39;7.70;99.90
18690;DHT22;9782;52.930;15.562;2023-03-01T13:45:17;7.70;99.90
18690;DHT22;9782;52.930;15.562;2023-03-01T13:47:45;7.70;99.90
18690;DHT22;9782;52.930;15.562;2023-03-01T13:50:19;7.70;99.90
18690;DHT22;9782;52.930;15.562;2023-03-01T13:52:50;7.80;99.90
18690;DHT22;9782;52.930;15.562;2023-03-01T13:55:21;7.80;99.90
18690;DHT22;9782;52.930;15.562;2023-03-01T13:57:54;7.80;99.90
18690;DHT22;9782;52.930;15.562;2023-03-01T14:00:29;7.80;99.90
18690;DHT22;9782;52.930;15.562;2023-03-01T14:03:11;7.80;99.90
18690;DHT22;9782;52.930;15.562;2023-03-01T14:05:40;7.70;99.90
18690;DHT22;9782;52.930;15.562;2023-03-01T14:08:20;7.70;99.90
18690;DHT22;9782;52.930;15.562;2023-03-01T14:10:54;7.80;99.90
18690;DHT22;9782;52.930;15.562;2023-03-01T14:13:39;7.80;99.90
18690;DHT22;9782;52.930;15.562;2023-03-01T14:16:28;7.80;99.90
18690;DHT22;9782;52.930;15.562;2023-03-01T14:19:14;7.70;99.90
18690;DHT22;9782;52.930;15.562;2023-03-01T14:21:42;7.70;99.90
18690;DHT22;9782;52.930;15.562;2023-03-01T14:24:17;7.70;99.90
18690;DHT22;9782;52.930;15.562;2023-03-01T14:26:44;7.60;99.90
18690;DHT22;9782;52.930;15.562;2023-03-01T14:29:29;7.70;99.90
18690;DHT22;9782;52.930;15.562;2023-03-01T14:32:09;7.60;99.90
18690;DHT22;9782;52.930;15.562;2023-03-01T14:34:42;7.70;99.90
18690;DHT22;9782;52.930;15.562;2023-03-01T14:37:10;7.70;99.90
18690;DHT22;9782;52.930;15.562;2023-03-01T14:39:37;7.70;99.90
18690;DHT22;9782;52.930;15.562;2023-03-01T14:42:04;7.70;99.90
18690;DHT22;9782;52.930;15.562;2023-03-01T14:44:33;7.60;99.90
18690;DHT22;9782;52.930;15.562;2023-03-01T14:47:03;7.60;99.90
18690;DHT22;9782;52.930;15.562;2023-03-01T14:49:32;7.50;99.90
18690;DHT22;9782;52.930;15.562;2023-03-01T14:52:01;7.50;99.90
18690;DHT22;9782;52.930;15.562;2023-03-01T14:54:35;7.50;99.90
18690;DHT22;9782;52.930;15.562;2023-03-01T14:57:03;7.50;99.90
18690;DHT22;9782;52.930;15.562;2023-03-01T14:59:30;7.50;99.90
18690;DHT22;9782;52.930;15.562;2023-03-01T15:02:01;7.50;99.90
18690;DHT22;9782;52.930;15.562;2023-03-01T15:04:28;7.50;99.90
18690;DHT22;9782;52.930;15.562;2023-03-01T15:06:57;7.50;99.90
18690;DHT22;9782;52.930;15.562;2023-03-01T15:09:31;7.50;99.90
18690;DHT22;9782;52.930;15.562;2023-03-01T15:11:58;7.50;99.90
18690;DHT22;9782;52.930;15.562;2023-03-01T15:14:38;7.40;99.90
18690;DHT22;9782;52.930;15.562;2023-03-01T15:17:21;7.40;99.90
18690;DHT22;9782;52.930;15.562;2023-03-01T15:19:49;7.40;99.90
18690;DHT22;9782;52.930;15.562;2023-03-01T15:22:17;7.30;99.90
18690;DHT22;9782;52.930;15.562;2023-03-01T15:24:47;7.30;99.90
18690;DHT22;9782;52.930;15.562;2023-03-01T15:27:17;7.30;99.90
18690;DHT22;9782;52.930;15.562;2023-03-01T15:29:48;7.20;99.90
18690;DHT22;9782;52.930;15.562;2023-03-01T15:32:28;7.20;99.90
18690;DHT22;9782;52.930;15.562;2023-03-01T15:34:56;7.10;99.90
18690;DHT22;9782;52.930;15.562;2023-03-01T15:37:45;7.10;99.90
18690;DHT22;9782;52.930;15.562;2023-03-01T15:40:24;7.00;99.90
18690;DHT22;9782;52.930;15.562;2023-03-01T15:42:57;6.90;99.90
18690;DHT22;9782;52.930;15.562;2023-03-01T15:45:25;6.90;99.90
18690;DHT22;9782;52.930;15.562;2023-03-01T15:47:55;6.80;99.90
18690;DHT22;9782;52.930;15.562;2023-03-01T15:50:25;6.70;99.90
18690;DHT22;9782;52.930;15.562;2023-03-01T15:52:53;6.70;99.90
18690;DHT22;9782;52.930;15.562;2023-03-01T15:55:21;6.70;99.90
18690;DHT22;9782;52.930;15.562;2023-03-01T15:57:49;6.60;99.90
18690;DHT22;9782;52.930;15.562;2023-03-01T16:00:17;6.60;99.90
18690;DHT22;9782;52.930;15.562;2023-03-01T16:02:44;6.50;99.90
18690;DHT22;9782;52.930;15.562;2023-03-01T16:05:21;6.50;99.90
18690;DHT22;9782;52.930;15.562;2023-03-01T16:07:48;6.30;99.90
18690;DHT22;9782;52.930;15.562;2023-03-01T16:10:16;6.20;99.90
18690;DHT22;9782;52.930;15.562;2023-03-01T16:12:43;6.10;99.90
18690;DHT22;9782;52.930;15.562;2023-03-01T16:15:15;5.90;99.90
18690;DHT22;9782;52.930;15.562;2023-03-01T16:17:43;5.70;99.90
18690;DHT22;9782;52.930;15.562;2023-03-01T16:20:10;5.60;99.90
18690;DHT22;9782;52.930;15.562;2023-03-01T16:22:38;5.60;99.90
18690;DHT22;9782;52.930;15.562;2023-03-01T16:25:08;5.50;99.90
18690;DHT22;9782;52.930;15.562;2023-03-01T16:27:35;5.30;99.90
18690;DHT22;9782;52.930;15.562;2023-03-01T16:30:02;5.20;99.90
18690;DHT22;9782;52.930;15.562;2023-03-01T16:32:29;5.10;99.90
18690;DHT22;9782;52.930;15.562;2023-03-01T16:34:56;5.00;99.90
18690;DHT22;9782;52.930;15.562;2023-03-01T16:37:23;4.90;99.90
18690;DHT22;9782;52.930;15.562;2023-03-01T16:39:51;4.80;99.90
18690;DHT22;9782;52.930;15.562;2023-03-01T16:42:18;4.60;99.90
18690;DHT22;9782;52.930;15.562;2023-03-01T16:44:45;4.60;99.90
18690;DHT22;9782;52.930;15.562;2023-03-01T16:47:11;4.50;1.00
18690;DHT22;9782;52.930;15.562;2023-03-01T16:49:38;4.40;1.00
18690;DHT22;9782;52.930;15.562;2023-03-01T16:52:05;4.30;1.00
18690;DHT22;9782;52.930;15.562;2023-03-01T16:54:32;4.20;1.00
18690;DHT22;9782;52.930;15.562;2023-03-01T16:57:00;4.10;1.00
18690;DHT22;9782;52.930;15.562;2023-03-01T16:59:27;4.00;1.00
18690;DHT22;9782;52.930;15.562;2023-03-01T17:01:53;4.00;1.00
18690;DHT22;9782;52.930;15.562;2023-03-01T17:04:20;3.90;1.00
18690;DHT22;9782;52.930;15.562;2023-03-01T17:06:47;3.80;1.00
18690;DHT22;9782;52.930;15.562;2023-03-01T17:09:14;3.70;1.00
18690;DHT22;9782;52.930;15.562;2023-03-01T17:11:42;3.70;1.00
18690;DHT22;9782;52.930;15.562;2023-03-01T17:14:10;3.60;1.00
18690;DHT22;9782;52.930;15.562;2023-03-01T17:16:37;3.50;1.00
18690;DHT22;9782;52.930;15.562;2023-03-01T17:19:03;3.50;1.00
18690;DHT22;9782;52.930;15.562;2023-03-01T17:21:30;3.40;1.00
18690;DHT22;9782;52.930;15.562;2023-03-01T17:23:58;3.30;1.00
18690;DHT22;9782;52.930;15.562;2023-03-01T17:26:25;3.30;1.00
18690;DHT22;9782;52.930;15.562;2023-03-01T17:28:53;3.20;1.00
18690;DHT22;9782;52.930;15.562;2023-03-01T17:31:22;3.20;1.00
18690;DHT22;9782;52.930;15.562;2023-03-01T17:33:49;3.10;1.00
18690;DHT22;9782;52.930;15.562;2023-03-01T17:36:17;3.00;1.00
18690;DHT22;9782;52.930;15.562;2023-03-01T17:38:43;3.00;1.00
18690;DHT22;9782;52.930;15.562;2023-03-01T17:41:11;3.00;1.00
18690;DHT22;9782;52.930;15.562;2023-03-01T17:43:39;2.90;1.00
18690;DHT22;9782;52.930;15.562;2023-03-01T17:46:05;2.80;1.00
18690;DHT22;9782;52.930;15.562;2023-03-01T17:48:34;2.80;1.00
18690;DHT22;9782;52.930;15.562;2023-03-01T17:51:05;2.70;1.00
18690;DHT22;9782;52.930;15.562;2023-03-01T17:53:32;2.60;1.00
18690;DHT22;9782;52.930;15.562;2023-03-01T17:56:00;2.60;1.00
18690;DHT22;9782;52.930;15.562;2023-03-01T17:58:28;2.50;1.00
18690;DHT22;9782;52.930;15.562;2023-03-01T18:00:55;2.50;1.00
18690;DHT22;9782;52.930;15.562;2023-03-01T18:03:21;2.40;1.00
18690;DHT22;9782;52.930;15.562;2023-03-01T18:05:49;2.40;1.00
18690;DHT22;9782;52.930;15.562;2023-03-01T18:08:16;2.30;1.00
18690;DHT22;9782;52.930;15.562;2023-03-01T18:10:43;2.30;1.00
18690;DHT22;9782;52.930;15.562;2023-03-01T18:13:10;2.30;1.00
18690;DHT22;9782;52.930;15.562;2023-03-01T18:15:39;2.30;1.00
18690;DHT22;9782;52.930;15.562;2023-03-01T18:18:06;2.20;1.00
18690;DHT22;9782;52.930;15.562;2023-03-01T18:20:33;2.20;1.00
18690;DHT22;9782;52.930;15.562;2023-03-01T18:23:01;2.20;1.00
18690;DHT22;9782;52.930;15.562;2023-03-01T18:25:28;2.10;29.60
18690;DHT22;9782;52.930;15.562;2023-03-01T18:27:55;2.10;50.90
18690;DHT22;9782;52.930;15.562;2023-03-01T18:30:22;2.10;75.70
18690;DHT22;9782;52.930;15.562;2023-03-01T18:32:48;2.10;90.70
18690;DHT22;9782;52.930;15.562;2023-03-01T18:35:21;2.10;99.90
18690;DHT22;9782;52.930;15.562;2023-03-01T18:37:47;2.10;99.90
18690;DHT22;9782;52.930;15.562;2023-03-01T18:40:16;2.00;99.90
18690;DHT22;9782;52.930;15.562;2023-03-01T18:42:43;2.00;99.90
18690;DHT22;9782;52.930;15.562;2023-03-01T18:45:10;2.00;99.90
18690;DHT22;9782;52.930;15.562;2023-03-01T18:47:39;2.00;99.90
18690;DHT22;9782;52.930;15.562;2023-03-01T18:50:06;1.90;99.90
18690;DHT22;9782;52.930;15.562;2023-03-01T18:52:33;1.90;99.90
18690;DHT22;9782;52.930;15.562;2023-03-01T18:55:00;1.90;99.90
18690;DHT22;9782;52.930;15.562;2023-03-01T18:57:28;1.90;99.90
18690;DHT22;9782;52.930;15.562;2023-03-01T18:59:55;1.90;99.90
18690;DHT22;9782;52.930;15.562;2023-03-01T19:02:22;1.80;99.90
18690;DHT22;9782;52.930;15.562;2023-03-01T19:04:49;1.80;99.90
18690;DHT22;9782;52.930;15.562;2023-03-01T19:07:16;1.70;99.90
18690;DHT22;9782;52.930;15.562;2023-03-01T19:09:42;1.70;99.90
18690;DHT22;9782;52.930;15.562;2023-03-01T19:12:09;1.70;99.90
18690;DHT22;9782;52.930;15.562;2023-03-01T19:14:38;1.70;99.90
18690;DHT22;9782;52.930;15.562;2023-03-01T19:17:04;1.60;99.90
18690;DHT22;9782;52.930;15.562;2023-03-01T19:19:31;1.60;99.90
18690;DHT22;9782;52.930;15.562;2023-03-01T19:22:00;1.60;99.90
18690;DHT22;9782;52.930;15.562;2023-03-01T19:24:26;1.60;99.90
18690;DHT22;9782;52.930;15.562;2023-03-01T19:26:54;1.60;99.90
18690;DHT22;9782;52.930;15.562;2023-03-01T19:29:22;1.50;1.00
18690;DHT22;9782;52.930;15.562;2023-03-01T19:31:50;1.50;1.00
18690;DHT22;9782;52.930;15.562;2023-03-01T19:34:17;1.50;1.00
18690;DHT22;9782;52.930;15.562;2023-03-01T19:36:44;1.50;1.00
18690;DHT22;9782;52.930;15.562;2023-03-01T19:39:13;1.50;1.00
18690;DHT22;9782;52.930;15.562;2023-03-01T19:41:40;1.50;1.00
18690;DHT22;9782;52.930;15.562;2023-03-01T19:44:08;1.50;1.00
18690;DHT22;9782;52.930;15.562;2023-03-01T19:46:35;1.40;1.00
18690;DHT22;9782;52.930;15.562;2023-03-01T19:49:04;1.50;1.00
18690;DHT22;9782;52.930;15.562;2023-03-01T19:51:31;1.50;1.00
18690;DHT22;9782;52.930;15.562;2023-03-01T19:54:01;1.50;1.00
18690;DHT22;9782;52.930;15.562;2023-03-01T19:56:28;1.50;1.00
18690;DHT22;9782;52.930;15.562;2023-03-01T19:58:55;1.60;1.00
18690;DHT22;9782;52.930;15.562;2023-03-01T20:01:26;1.50;1.00
18690;DHT22;9782;52.930;15.562;2023-03-01T20:03:54;1.50;1.00
18690;DHT22;9782;52.930;15.562;2023-03-01T20:06:22;1.50;1.00
18690;DHT22;9782;52.930;15.562;2023-03-01T20:08:50;1.60;1.00
18690;DHT22;9782;52.930;15.562;2023-03-01T20:11:18;1.60;1.00
18690;DHT22;9782;52.930;15.562;2023-03-01T20:13:45;1.60;1.00
18690;DHT22;9782;52.930;15.562;2023-03-01T20:16:14;1.60;1.00
18690;DHT22;9782;52.930;15.562;2023-03-01T20:18:41;1.60;1.00
18690;DHT22;9782;52.930;15.562;2023-03-01T20:21:09;1.70;50.60
18690;DHT22;9782;52.930;15.562;2023-03-01T20:23:37;1.70;73.40
18690;DHT22;9782;52.930;15.562;2023-03-01T20:26:06;1.70;64.00
18690;DHT22;9782;52.930;15.562;2023-03-01T20:28:34;1.80;99.90
18690;DHT22;9782;52.930;15.562;2023-03-01T20:31:03;1.70;44.40
18690;DHT22;9782;52.930;15.562;2023-03-01T20:33:30;1.70;60.00
18690;DHT22;9782;52.930;15.562;2023-03-01T20:35:57;1.70;49.60
18690;DHT22;9782;52.930;15.562;2023-03-01T20:38:24;1.70;99.90
18690;DHT22;9782;52.930;15.562;2023-03-01T20:40:57;1.60;99.90
18690;DHT22;9782;52.930;15.562;2023-03-01T20:43:24;1.60;99.90
18690;DHT22;9782;52.930;15.562;2023-03-01T20:45:51;1.60;75.20
18690;DHT22;9782;52.930;15.562;2023-03-01T20:48:18;1.60;95.40
18690;DHT22;9782;52.930;15.562;2023-03-01T20:50:44;1.50;99.90
18690;DHT22;9782;52.930;15.562;2023-03-01T20:53:11;1.40;99.90
18690;DHT22;9782;52.930;15.562;2023-03-01T20:55:38;1.40;99.90
18690;DHT22;9782;52.930;15.562;2023-03-01T20:58:06;1.30;99.90
18690;DHT22;9782;52.930;15.562;2023-03-01T21:00:34;1.30;99.90
18690;DHT22;9782;52.930;15.562;2023-03-01T21:03:01;1.20;99.90
18690;DHT22;9782;52.930;15.562;2023-03-01T21:05:28;1.20;99.90
18690;DHT22;9782;52.930;15.562;2023-03-01T21:07:55;1.20;99.90
18690;DHT22;9782;52.930;15.562;2023-03-01T21:10:23;1.20;99.90
18690;DHT22;9782;52.930;15.562;2023-03-01T21:12:50;1.20;99.90
18690;DHT22;9782;52.930;15.562;2023-03-01T21:15:18;1.20;99.90
18690;DHT22;9782;52.930;15.562;2023-03-01T21:17:45;1.20;1.00
18690;DHT22;9782;52.930;15.562;2023-03-01T21:20:12;1.20;1.00
18690;DHT22;9782;52.930;15.562;2023-03-01T21:22:39;1.20;1.00
18690;DHT22;9782;52.930;15.562;2023-03-01T21:25:06;1.20;1.00
18690;DHT22;9782;52.930;15.562;2023-03-01T21:27:35;1.20;1.00
18690;DHT22;9782;52.930;15.562;2023-03-01T21:30:03;1.20;1.00
18690;DHT22;9782;52.930;15.562;2023-03-01T21:32:31;1.20;1.00
18690;DHT22;9782;52.930;15.562;2023-03-01T21:34:58;1.20;1.00
18690;DHT22;9782;52.930;15.562;2023-03-01T21:37:25;1.20;1.00
18690;DHT22;9782;52.930;15.562;2023-03-01T21:39:54;1.30;1.00
18690;DHT22;9782;52.930;15.562;2023-03-01T21:42:22;1.30;1.00
18690;DHT22;9782;52.930;15.562;2023-03-01T21:44:49;1.30;1.00
18690;DHT22;9782;52.930;15.562;2023-03-01T21:47:15;1.30;1.00
18690;DHT22;9782;52.930;15.562;2023-03-01T21:49:44;1.30;1.00
18690;DHT22;9782;52.930;15.562;2023-03-01T21:52:11;1.30;1.00
18690;DHT22;9782;52.930;15.562;2023-03-01T21:54:41;1.30;1.00
18690;DHT22;9782;52.930;15.562;2023-03-01T21:57:08;1.20;1.00
18690;DHT22;9782;52.930;15.562;2023-03-01T21:59:35;1.20;1.00
18690;DHT22;9782;52.930;15.562;2023-03-01T22:02:02;1.20;1.00
18690;DHT22;9782;52.930;15.562;2023-03-01T22:04:29;1.10;1.00
18690;DHT22;9782;52.930;15.562;2023-03-01T22:06:57;1.20;1.00
18690;DHT22;9782;52.930;15.562;2023-03-01T22:09:24;1.10;1.00
18690;DHT22;9782;52.930;15.562;2023-03-01T22:11:52;1.10;1.00
18690;DHT22;9782;52.930;15.562;2023-03-01T22:14:22;1.00;1.00